sensor_id;sensor_type;location;lat;lon;timestamp;P1;durP1;ratioP1;P2;durP2;ratioP2
66567;SDS011;53422;49.296;6.900;2023-04-08T00:01:06;12.38;;;5.32;;
66567;SDS011;53422;49.296;6.900;2023-04-08T00:03:32;16.02;;;5.88;;
66567;SDS011;53422;49.296;6.900;2023-04-08T00:05:57;10.95;;;5.60;;
66567;SDS011;53422;49.296;6.900;2023-04-08T00:08:26;11.57;;;5.72;;
66567;SDS011;53422;49.296;6.900;2023-04-08T00:10:52;14.75;;;5.63;;
66567;SDS011;53422;49.296;6.900;2023-04-08T00:13:17;11.70;;;4.90;;
66567;SDS011;53422;49.296;6.900;2023-04-08T00:15:44;13.43;;;5.13;;
66567;SDS011;53422;49.296;6.900;2023-04-08T00:18:10;10.10;;;4.95;;
66567;SDS011;53422;49.296;6.900;2023-04-08T00:20:35;12.65;;;5.68;;
66567;SDS011;53422;49.296;6.900;2023-04-08T00:23:01;12.80;;;5.97;;
66567;SDS011;53422;49.296;6.900;2023-04-08T00:25:27;13.95;;;5.15;;
66567;SDS011;53422;49.296;6.900;2023-04-08T00:27:53;12.65;;;5.28;;
66567;SDS011;53422;49.296;6.900;2023-04-08T00:30:18;11.75;;;5.30;;
66567;SDS011;53422;49.296;6.900;2023-04-08T00:32:44;14.55;;;5.97;;
66567;SDS011;53422;49.296;6.900;2023-04-08T00:35:10;17.10;;;5.60;;
66567;SDS011;53422;49.296;6.900;2023-04-08T00:37:37;15.38;;;5.90;;
66567;SDS011;53422;49.296;6.900;2023-04-08T00:40:02;12.25;;;6.00;;
66567;SDS011;53422;49.296;6.900;2023-04-08T00:42:29;11.35;;;5.07;;
66567;SDS011;53422;49.296;6.900;2023-04-08T00:44:55;9.68;;;4.65;;
66567;SDS011;53422;49.296;6.900;2023-04-08T00:47:20;12.32;;;5.45;;
66567;SDS011;53422;49.296;6.900;2023-04-08T00:49:46;10.70;;;4.55;;
66567;SDS011;53422;49.296;6.900;2023-04-08T00:52:12;10.80;;;5.00;;
66567;SDS011;53422;49.296;6.900;2023-04-08T00:54:37;12.70;;;5.43;;
66567;SDS011;53422;49.296;6.900;2023-04-08T00:57:04;10.88;;;5.03;;
66567;SDS011;53422;49.296;6.900;2023-04-08T00:59:30;11.68;;;5.22;;
66567;SDS011;53422;49.296;6.900;2023-04-08T01:02:11;13.27;;;5.68;;
66567;SDS011;53422;49.296;6.900;2023-04-08T01:04:47;11.48;;;5.63;;
66567;SDS011;53422;49.296;6.900;2023-04-08T01:07:30;11.27;;;5.13;;
66567;SDS011;53422;49.296;6.900;2023-04-08T01:10:03;11.98;;;5.20;;
66567;SDS011;53422;49.296;6.900;2023-04-08T01:12:40;13.50;;;5.50;;
66567;SDS011;53422;49.296;6.900;2023-04-08T01:15:12;12.48;;;5.28;;
66567;SDS011;53422;49.296;6.900;2023-04-08T01:17:38;10.88;;;5.35;;
66567;SDS011;53422;49.296;6.900;2023-04-08T01:20:05;12.30;;;5.53;;
66567;SDS011;53422;49.296;6.900;2023-04-08T01:25:20;10.90;;;4.07;;
66567;SDS011;53422;49.296;6.900;2023-04-08T01:27:48;12.98;;;5.10;;
66567;SDS011;53422;49.296;6.900;2023-04-08T01:30:16;12.93;;;5.03;;
66567;SDS011;53422;49.296;6.900;2023-04-08T01:32:44;11.63;;;5.55;;
66567;SDS011;53422;49.296;6.900;2023-04-08T01:35:11;15.18;;;5.45;;
66567;SDS011;53422;49.296;6.900;2023-04-08T01:37:39;13.32;;;5.88;;
66567;SDS011;53422;49.296;6.900;2023-04-08T01:40:07;10.07;;;4.70;;
66567;SDS011;53422;49.296;6.900;2023-04-08T01:42:33;13.02;;;5.72;;
66567;SDS011;53422;49.296;6.900;2023-04-08T01:45:00;10.48;;;4.93;;
66567;SDS011;53422;49.296;6.900;2023-04-08T01:47:28;11.43;;;5.50;;
66567;SDS011;53422;49.296;6.900;2023-04-08T01:49:55;9.80;;;4.10;;
66567;SDS011;53422;49.296;6.900;2023-04-08T01:52:21;13.88;;;5.55;;
66567;SDS011;53422;49.296;6.900;2023-04-08T01:54:49;13.05;;;5.47;;
66567;SDS011;53422;49.296;6.900;2023-04-08T01:57:16;9.75;;;5.18;;
66567;SDS011;53422;49.296;6.900;2023-04-08T01:59:49;10.30;;;4.85;;
66567;SDS011;53422;49.296;6.900;2023-04-08T02:02:16;12.07;;;4.75;;
66567;SDS011;53422;49.296;6.900;2023-04-08T02:04:44;10.75;;;4.45;;
66567;SDS011;53422;49.296;6.900;2023-04-08T02:07:10;9.68;;;4.38;;
66567;SDS011;53422;49.296;6.900;2023-04-08T02:09:36;12.10;;;4.80;;
66567;SDS011;53422;49.296;6.900;2023-04-08T02:12:02;9.65;;;4.72;;
66567;SDS011;53422;49.296;6.900;2023-04-08T02:14:28;11.02;;;4.45;;
66567;SDS011;53422;49.296;6.900;2023-04-08T02:22:43;8.88;;;3.60;;
66567;SDS011;53422;49.296;6.900;2023-04-08T02:27:41;9.50;;;3.83;;
66567;SDS011;53422;49.296;6.900;2023-04-08T02:30:09;9.65;;;4.65;;
66567;SDS011;53422;49.296;6.900;2023-04-08T02:35:03;7.90;;;3.30;;
66567;SDS011;53422;49.296;6.900;2023-04-08T02:37:30;9.93;;;3.83;;
66567;SDS011;53422;49.296;6.900;2023-04-08T02:39:56;8.95;;;3.70;;
66567;SDS011;53422;49.296;6.900;2023-04-08T02:42:22;9.93;;;4.20;;
66567;SDS011;53422;49.296;6.900;2023-04-08T02:44:48;10.65;;;4.47;;
66567;SDS011;53422;49.296;6.900;2023-04-08T02:47:13;10.05;;;4.70;;
66567;SDS011;53422;49.296;6.900;2023-04-08T02:49:39;9.65;;;4.50;;
66567;SDS011;53422;49.296;6.900;2023-04-08T02:52:05;10.75;;;4.35;;
66567;SDS011;53422;49.296;6.900;2023-04-08T02:54:30;8.82;;;4.45;;
66567;SDS011;53422;49.296;6.900;2023-04-08T02:56:56;11.57;;;4.43;;
66567;SDS011;53422;49.296;6.900;2023-04-08T02:59:22;10.93;;;4.70;;
66567;SDS011;53422;49.296;6.900;2023-04-08T03:01:47;10.43;;;4.93;;
66567;SDS011;53422;49.296;6.900;2023-04-08T03:04:13;9.07;;;4.18;;
66567;SDS011;53422;49.296;6.900;2023-04-08T03:06:39;9.88;;;4.45;;
66567;SDS011;53422;49.296;6.900;2023-04-08T03:09:04;9.93;;;4.53;;
66567;SDS011;53422;49.296;6.900;2023-04-08T03:11:31;9.63;;;3.72;;
66567;SDS011;53422;49.296;6.900;2023-04-08T03:13:57;10.48;;;4.55;;
66567;SDS011;53422;49.296;6.900;2023-04-08T03:16:22;9.13;;;4.60;;
66567;SDS011;53422;49.296;6.900;2023-04-08T03:18:48;8.88;;;4.18;;
66567;SDS011;53422;49.296;6.900;2023-04-08T03:21:15;8.07;;;4.00;;
66567;SDS011;53422;49.296;6.900;2023-04-08T03:23:41;11.20;;;4.82;;
66567;SDS011;53422;49.296;6.900;2023-04-08T03:26:06;10.88;;;4.47;;
66567;SDS011;53422;49.296;6.900;2023-04-08T03:28:32;8.30;;;4.38;;
66567;SDS011;53422;49.296;6.900;2023-04-08T03:30:58;10.25;;;4.18;;
66567;SDS011;53422;49.296;6.900;2023-04-08T03:33:25;8.18;;;4.25;;
66567;SDS011;53422;49.296;6.900;2023-04-08T03:35:50;9.38;;;4.15;;
66567;SDS011;53422;49.296;6.900;2023-04-08T03:38:18;7.43;;;3.78;;
66567;SDS011;53422;49.296;6.900;2023-04-08T03:40:43;8.65;;;3.88;;
66567;SDS011;53422;49.296;6.900;2023-04-08T03:43:09;7.63;;;3.67;;
66567;SDS011;53422;49.296;6.900;2023-04-08T03:45:36;8.52;;;4.03;;
66567;SDS011;53422;49.296;6.900;2023-04-08T03:48:02;9.10;;;3.88;;
66567;SDS011;53422;49.296;6.900;2023-04-08T03:50:28;8.52;;;4.15;;
66567;SDS011;53422;49.296;6.900;2023-04-08T03:52:53;8.27;;;3.42;;
66567;SDS011;53422;49.296;6.900;2023-04-08T03:55:19;8.13;;;4.13;;
66567;SDS011;53422;49.296;6.900;2023-04-08T03:57:45;8.48;;;4.18;;
66567;SDS011;53422;49.296;6.900;2023-04-08T04:00:11;10.05;;;4.22;;
66567;SDS011;53422;49.296;6.900;2023-04-08T04:02:37;10.43;;;4.50;;
66567;SDS011;53422;49.296;6.900;2023-04-08T04:05:02;9.07;;;4.28;;
66567;SDS011;53422;49.296;6.900;2023-04-08T04:07:28;9.38;;;4.22;;
66567;SDS011;53422;49.296;6.900;2023-04-08T04:09:54;8.43;;;4.18;;
66567;SDS011;53422;49.296;6.900;2023-04-08T04:12:21;10.15;;;4.28;;
66567;SDS011;53422;49.296;6.900;2023-04-08T04:14:47;7.07;;;4.10;;
66567;SDS011;53422;49.296;6.900;2023-04-08T04:17:13;11.32;;;4.22;;
66567;SDS011;53422;49.296;6.900;2023-04-08T04:19:39;9.43;;;4.20;;
66567;SDS011;53422;49.296;6.900;2023-04-08T04:22:04;9.57;;;3.55;;
66567;SDS011;53422;49.296;6.900;2023-04-08T04:24:30;9.07;;;3.80;;
66567;SDS011;53422;49.296;6.900;2023-04-08T04:26:56;8.55;;;4.30;;
66567;SDS011;53422;49.296;6.900;2023-04-08T04:29:21;10.68;;;4.15;;
66567;SDS011;53422;49.296;6.900;2023-04-08T04:31:47;11.35;;;4.10;;
66567;SDS011;53422;49.296;6.900;2023-04-08T04:34:13;8.00;;;3.95;;
66567;SDS011;53422;49.296;6.900;2023-04-08T04:36:38;9.15;;;4.88;;
66567;SDS011;53422;49.296;6.900;2023-04-08T04:39:04;10.13;;;4.43;;
66567;SDS011;53422;49.296;6.900;2023-04-08T04:41:30;9.68;;;4.95;;
66567;SDS011;53422;49.296;6.900;2023-04-08T04:43:55;11.20;;;4.97;;
66567;SDS011;53422;49.296;6.900;2023-04-08T04:46:21;12.45;;;5.40;;
66567;SDS011;53422;49.296;6.900;2023-04-08T04:48:47;12.25;;;5.15;;
66567;SDS011;53422;49.296;6.900;2023-04-08T04:51:12;14.82;;;5.50;;
66567;SDS011;53422;49.296;6.900;2023-04-08T04:53:38;10.27;;;5.10;;
66567;SDS011;53422;49.296;6.900;2023-04-08T04:56:04;10.25;;;4.43;;
66567;SDS011;53422;49.296;6.900;2023-04-08T04:58:29;12.82;;;5.60;;
66567;SDS011;53422;49.296;6.900;2023-04-08T05:00:55;9.15;;;4.38;;
66567;SDS011;53422;49.296;6.900;2023-04-08T05:03:21;7.82;;;3.92;;
66567;SDS011;53422;49.296;6.900;2023-04-08T05:05:51;9.43;;;4.50;;
66567;SDS011;53422;49.296;6.900;2023-04-08T05:08:17;10.70;;;4.60;;
66567;SDS011;53422;49.296;6.900;2023-04-08T05:10:43;9.23;;;4.05;;
66567;SDS011;53422;49.296;6.900;2023-04-08T05:13:09;9.20;;;4.82;;
66567;SDS011;53422;49.296;6.900;2023-04-08T05:15:35;10.25;;;4.60;;
66567;SDS011;53422;49.296;6.900;2023-04-08T05:18:00;12.02;;;4.85;;
66567;SDS011;53422;49.296;6.900;2023-04-08T05:20:26;10.07;;;5.22;;
66567;SDS011;53422;49.296;6.900;2023-04-08T05:22:52;10.07;;;4.85;;
66567;SDS011;53422;49.296;6.900;2023-04-08T05:25:18;11.73;;;4.75;;
66567;SDS011;53422;49.296;6.900;2023-04-08T05:27:43;8.48;;;4.40;;
66567;SDS011;53422;49.296;6.900;2023-04-08T05:30:09;10.50;;;4.50;;
66567;SDS011;53422;49.296;6.900;2023-04-08T05:32:35;9.40;;;4.13;;
66567;SDS011;53422;49.296;6.900;2023-04-08T05:35:02;9.48;;;4.15;;
66567;SDS011;53422;49.296;6.900;2023-04-08T05:37:28;11.00;;;4.45;;
66567;SDS011;53422;49.296;6.900;2023-04-08T05:39:53;10.98;;;4.55;;
66567;SDS011;53422;49.296;6.900;2023-04-08T05:42:19;12.18;;;4.75;;
66567;SDS011;53422;49.296;6.900;2023-04-08T05:44:45;9.80;;;4.43;;
66567;SDS011;53422;49.296;6.900;2023-04-08T05:47:10;12.65;;;4.47;;
66567;SDS011;53422;49.296;6.900;2023-04-08T05:49:36;11.45;;;4.18;;
66567;SDS011;53422;49.296;6.900;2023-04-08T05:52:01;12.20;;;4.35;;
66567;SDS011;53422;49.296;6.900;2023-04-08T05:54:28;9.20;;;3.95;;
66567;SDS011;53422;49.296;6.900;2023-04-08T05:56:53;9.60;;;3.75;;
66567;SDS011;53422;49.296;6.900;2023-04-08T05:59:19;9.55;;;3.97;;
66567;SDS011;53422;49.296;6.900;2023-04-08T06:01:45;9.55;;;4.20;;
66567;SDS011;53422;49.296;6.900;2023-04-08T06:04:10;7.38;;;3.53;;
66567;SDS011;53422;49.296;6.900;2023-04-08T06:06:36;8.70;;;3.95;;
66567;SDS011;53422;49.296;6.900;2023-04-08T06:09:03;10.55;;;3.83;;
66567;SDS011;53422;49.296;6.900;2023-04-08T06:11:30;9.90;;;4.05;;
66567;SDS011;53422;49.296;6.900;2023-04-08T06:13:55;11.25;;;3.80;;
66567;SDS011;53422;49.296;6.900;2023-04-08T06:16:21;13.45;;;3.58;;
66567;SDS011;53422;49.296;6.900;2023-04-08T06:18:47;10.70;;;3.42;;
66567;SDS011;53422;49.296;6.900;2023-04-08T06:21:16;13.77;;;3.95;;
66567;SDS011;53422;49.296;6.900;2023-04-08T06:23:42;11.05;;;4.05;;
66567;SDS011;53422;49.296;6.900;2023-04-08T06:26:07;11.45;;;4.03;;
66567;SDS011;53422;49.296;6.900;2023-04-08T06:28:33;12.63;;;4.38;;
66567;SDS011;53422;49.296;6.900;2023-04-08T06:30:58;15.02;;;4.22;;
66567;SDS011;53422;49.296;6.900;2023-04-08T06:33:24;13.25;;;4.53;;
66567;SDS011;53422;49.296;6.900;2023-04-08T06:35:50;12.55;;;3.90;;
66567;SDS011;53422;49.296;6.900;2023-04-08T06:38:16;11.90;;;4.72;;
66567;SDS011;53422;49.296;6.900;2023-04-08T06:40:41;11.80;;;4.15;;
66567;SDS011;53422;49.296;6.900;2023-04-08T06:43:07;10.18;;;4.53;;
66567;SDS011;53422;49.296;6.900;2023-04-08T06:45:33;10.88;;;4.57;;
66567;SDS011;53422;49.296;6.900;2023-04-08T06:47:59;11.55;;;4.32;;
66567;SDS011;53422;49.296;6.900;2023-04-08T06:50:25;15.75;;;5.30;;
66567;SDS011;53422;49.296;6.900;2023-04-08T06:52:50;14.60;;;4.63;;
66567;SDS011;53422;49.296;6.900;2023-04-08T06:55:16;12.65;;;5.13;;
66567;SDS011;53422;49.296;6.900;2023-04-08T06:57:42;15.48;;;5.53;;
66567;SDS011;53422;49.296;6.900;2023-04-08T07:00:08;12.57;;;4.65;;
66567;SDS011;53422;49.296;6.900;2023-04-08T07:02:34;10.38;;;4.40;;
66567;SDS011;53422;49.296;6.900;2023-04-08T07:05:00;15.60;;;5.10;;
66567;SDS011;53422;49.296;6.900;2023-04-08T07:07:26;15.48;;;5.25;;
66567;SDS011;53422;49.296;6.900;2023-04-08T07:09:52;12.27;;;5.03;;
66567;SDS011;53422;49.296;6.900;2023-04-08T07:12:17;13.73;;;5.35;;
66567;SDS011;53422;49.296;6.900;2023-04-08T07:14:43;16.83;;;6.00;;
66567;SDS011;53422;49.296;6.900;2023-04-08T07:17:09;15.02;;;5.93;;
66567;SDS011;53422;49.296;6.900;2023-04-08T07:19:35;15.55;;;5.68;;
66567;SDS011;53422;49.296;6.900;2023-04-08T07:22:01;16.88;;;5.53;;
66567;SDS011;53422;49.296;6.900;2023-04-08T07:24:27;14.30;;;4.90;;
66567;SDS011;53422;49.296;6.900;2023-04-08T07:26:52;17.10;;;5.75;;
66567;SDS011;53422;49.296;6.900;2023-04-08T07:29:20;19.80;;;5.32;;
66567;SDS011;53422;49.296;6.900;2023-04-08T07:31:45;16.65;;;5.32;;
66567;SDS011;53422;49.296;6.900;2023-04-08T07:34:11;17.70;;;5.80;;
66567;SDS011;53422;49.296;6.900;2023-04-08T07:36:37;17.73;;;5.65;;
66567;SDS011;53422;49.296;6.900;2023-04-08T07:39:03;17.65;;;6.55;;
66567;SDS011;53422;49.296;6.900;2023-04-08T07:41:28;17.80;;;6.45;;
66567;SDS011;53422;49.296;6.900;2023-04-08T07:43:54;15.57;;;5.18;;
66567;SDS011;53422;49.296;6.900;2023-04-08T07:46:20;21.08;;;6.25;;
66567;SDS011;53422;49.296;6.900;2023-04-08T07:48:45;17.85;;;6.95;;
66567;SDS011;53422;49.296;6.900;2023-04-08T07:51:11;16.77;;;6.10;;
66567;SDS011;53422;49.296;6.900;2023-04-08T07:53:37;16.75;;;5.57;;
66567;SDS011;53422;49.296;6.900;2023-04-08T07:56:13;15.43;;;5.75;;
66567;SDS011;53422;49.296;6.900;2023-04-08T07:58:40;21.45;;;5.80;;
66567;SDS011;53422;49.296;6.900;2023-04-08T08:01:18;15.32;;;5.32;;
66567;SDS011;53422;49.296;6.900;2023-04-08T08:03:46;17.88;;;5.00;;
66567;SDS011;53422;49.296;6.900;2023-04-08T08:06:15;18.95;;;6.75;;
66567;SDS011;53422;49.296;6.900;2023-04-08T08:08:41;17.35;;;6.05;;
66567;SDS011;53422;49.296;6.900;2023-04-08T08:11:07;15.80;;;6.40;;
66567;SDS011;53422;49.296;6.900;2023-04-08T08:13:32;20.42;;;6.38;;
66567;SDS011;53422;49.296;6.900;2023-04-08T08:15:58;18.98;;;6.22;;
66567;SDS011;53422;49.296;6.900;2023-04-08T08:18:24;16.95;;;5.88;;
66567;SDS011;53422;49.296;6.900;2023-04-08T08:20:51;17.55;;;6.28;;
66567;SDS011;53422;49.296;6.900;2023-04-08T08:23:16;20.50;;;6.63;;
66567;SDS011;53422;49.296;6.900;2023-04-08T08:25:42;16.38;;;6.05;;
66567;SDS011;53422;49.296;6.900;2023-04-08T08:28:07;18.48;;;6.18;;
66567;SDS011;53422;49.296;6.900;2023-04-08T08:30:33;17.33;;;5.22;;
66567;SDS011;53422;49.296;6.900;2023-04-08T08:32:59;14.75;;;6.57;;
66567;SDS011;53422;49.296;6.900;2023-04-08T08:35:25;16.40;;;6.45;;
66567;SDS011;53422;49.296;6.900;2023-04-08T08:37:51;18.38;;;5.97;;
66567;SDS011;53422;49.296;6.900;2023-04-08T08:40:16;14.43;;;4.85;;
66567;SDS011;53422;49.296;6.900;2023-04-08T08:42:48;17.67;;;6.20;;
66567;SDS011;53422;49.296;6.900;2023-04-08T08:45:16;16.27;;;5.97;;
66567;SDS011;53422;49.296;6.900;2023-04-08T08:47:43;21.83;;;7.18;;
66567;SDS011;53422;49.296;6.900;2023-04-08T08:50:09;14.10;;;5.05;;
66567;SDS011;53422;49.296;6.900;2023-04-08T08:52:35;16.70;;;5.85;;
66567;SDS011;53422;49.296;6.900;2023-04-08T08:55:00;19.98;;;7.40;;
66567;SDS011;53422;49.296;6.900;2023-04-08T08:57:26;17.45;;;6.05;;
66567;SDS011;53422;49.296;6.900;2023-04-08T08:59:52;11.88;;;4.60;;
66567;SDS011;53422;49.296;6.900;2023-04-08T09:02:24;9.45;;;3.90;;
66567;SDS011;53422;49.296;6.900;2023-04-08T09:04:55;15.27;;;6.13;;
66567;SDS011;53422;49.296;6.900;2023-04-08T09:07:26;14.95;;;5.88;;
66567;SDS011;53422;49.296;6.900;2023-04-08T09:09:53;17.85;;;6.47;;
66567;SDS011;53422;49.296;6.900;2023-04-08T09:12:20;13.90;;;5.03;;
66567;SDS011;53422;49.296;6.900;2023-04-08T09:14:46;16.73;;;5.78;;
66567;SDS011;53422;49.296;6.900;2023-04-08T09:17:12;12.60;;;4.97;;
66567;SDS011;53422;49.296;6.900;2023-04-08T09:19:38;13.23;;;5.45;;
66567;SDS011;53422;49.296;6.900;2023-04-08T09:24:30;14.02;;;6.15;;
66567;SDS011;53422;49.296;6.900;2023-04-08T09:26:56;13.38;;;5.45;;
66567;SDS011;53422;49.296;6.900;2023-04-08T09:29:22;15.82;;;5.97;;
66567;SDS011;53422;49.296;6.900;2023-04-08T09:31:53;16.52;;;6.22;;
66567;SDS011;53422;49.296;6.900;2023-04-08T09:34:20;14.27;;;5.97;;
66567;SDS011;53422;49.296;6.900;2023-04-08T09:36:47;9.70;;;4.03;;
66567;SDS011;53422;49.296;6.900;2023-04-08T09:39:13;15.75;;;5.15;;
66567;SDS011;53422;49.296;6.900;2023-04-08T09:41:40;15.57;;;4.93;;
66567;SDS011;53422;49.296;6.900;2023-04-08T09:44:07;17.67;;;6.03;;
66567;SDS011;53422;49.296;6.900;2023-04-08T09:49:17;15.82;;;6.30;;
66567;SDS011;53422;49.296;6.900;2023-04-08T09:51:52;16.83;;;5.43;;
66567;SDS011;53422;49.296;6.900;2023-04-08T09:57:15;17.02;;;6.22;;
66567;SDS011;53422;49.296;6.900;2023-04-08T09:59:51;15.07;;;6.53;;
66567;SDS011;53422;49.296;6.900;2023-04-08T10:02:28;17.15;;;6.25;;
66567;SDS011;53422;49.296;6.900;2023-04-08T10:04:56;10.73;;;5.07;;
66567;SDS011;53422;49.296;6.900;2023-04-08T10:07:24;14.45;;;5.82;;
66567;SDS011;53422;49.296;6.900;2023-04-08T10:09:49;16.92;;;6.85;;
66567;SDS011;53422;49.296;6.900;2023-04-08T10:12:16;12.45;;;5.10;;
66567;SDS011;53422;49.296;6.900;2023-04-08T10:14:51;15.63;;;6.18;;
66567;SDS011;53422;49.296;6.900;2023-04-08T10:17:47;14.25;;;5.32;;
66567;SDS011;53422;49.296;6.900;2023-04-08T10:23:07;15.75;;;6.35;;
66567;SDS011;53422;49.296;6.900;2023-04-08T10:25:35;12.27;;;5.55;;
66567;SDS011;53422;49.296;6.900;2023-04-08T10:35:39;13.27;;;5.15;;
66567;SDS011;53422;49.296;6.900;2023-04-08T10:38:12;11.40;;;4.82;;
66567;SDS011;53422;49.296;6.900;2023-04-08T10:40:39;11.55;;;5.10;;
66567;SDS011;53422;49.296;6.900;2023-04-08T10:43:06;14.65;;;6.15;;
66567;SDS011;53422;49.296;6.900;2023-04-08T10:45:33;14.20;;;6.50;;
66567;SDS011;53422;49.296;6.900;2023-04-08T10:48:16;16.65;;;5.88;;
66567;SDS011;53422;49.296;6.900;2023-04-08T10:50:42;12.30;;;5.32;;
66567;SDS011;53422;49.296;6.900;2023-04-08T10:53:29;14.85;;;5.15;;
66567;SDS011;53422;49.296;6.900;2023-04-08T10:56:11;13.88;;;5.18;;
66567;SDS011;53422;49.296;6.900;2023-04-08T10:58:49;13.70;;;6.88;;
66567;SDS011;53422;49.296;6.900;2023-04-08T11:01:17;12.35;;;5.60;;
66567;SDS011;53422;49.296;6.900;2023-04-08T11:03:43;12.00;;;5.60;;
66567;SDS011;53422;49.296;6.900;2023-04-08T11:06:09;11.43;;;5.00;;
66567;SDS011;53422;49.296;6.900;2023-04-08T11:08:35;12.57;;;5.43;;
66567;SDS011;53422;49.296;6.900;2023-04-08T11:11:01;12.05;;;5.40;;
66567;SDS011;53422;49.296;6.900;2023-04-08T11:13:29;11.25;;;5.28;;
66567;SDS011;53422;49.296;6.900;2023-04-08T11:15:55;13.25;;;5.10;;
66567;SDS011;53422;49.296;6.900;2023-04-08T11:18:25;11.77;;;5.38;;
66567;SDS011;53422;49.296;6.900;2023-04-08T11:20:51;12.02;;;4.65;;
66567;SDS011;53422;49.296;6.900;2023-04-08T11:23:17;11.68;;;5.20;;
66567;SDS011;53422;49.296;6.900;2023-04-08T11:25:44;12.40;;;5.22;;
66567;SDS011;53422;49.296;6.900;2023-04-08T11:28:11;11.63;;;5.00;;
66567;SDS011;53422;49.296;6.900;2023-04-08T11:30:41;10.50;;;4.93;;
66567;SDS011;53422;49.296;6.900;2023-04-08T11:33:07;11.82;;;4.18;;
66567;SDS011;53422;49.296;6.900;2023-04-08T11:35:33;13.93;;;4.82;;
66567;SDS011;53422;49.296;6.900;2023-04-08T11:37:59;11.73;;;5.32;;
66567;SDS011;53422;49.296;6.900;2023-04-08T11:40:28;9.50;;;4.35;;
66567;SDS011;53422;49.296;6.900;2023-04-08T11:42:54;11.18;;;5.18;;
66567;SDS011;53422;49.296;6.900;2023-04-08T11:45:20;10.35;;;4.85;;
66567;SDS011;53422;49.296;6.900;2023-04-08T11:47:46;9.20;;;3.92;;
66567;SDS011;53422;49.296;6.900;2023-04-08T11:50:17;8.57;;;4.35;;
66567;SDS011;53422;49.296;6.900;2023-04-08T11:52:50;10.13;;;4.28;;
66567;SDS011;53422;49.296;6.900;2023-04-08T11:55:24;10.02;;;5.07;;
66567;SDS011;53422;49.296;6.900;2023-04-08T11:58:01;10.70;;;4.72;;
66567;SDS011;53422;49.296;6.900;2023-04-08T12:00:28;8.82;;;4.32;;
66567;SDS011;53422;49.296;6.900;2023-04-08T12:02:55;5.68;;;3.05;;
66567;SDS011;53422;49.296;6.900;2023-04-08T12:05:20;10.32;;;6.00;;
66567;SDS011;53422;49.296;6.900;2023-04-08T12:07:46;9.52;;;4.93;;
66567;SDS011;53422;49.296;6.900;2023-04-08T12:10:12;10.88;;;4.60;;
66567;SDS011;53422;49.296;6.900;2023-04-08T12:12:38;9.45;;;4.43;;
66567;SDS011;53422;49.296;6.900;2023-04-08T12:15:04;10.10;;;5.07;;
66567;SDS011;53422;49.296;6.900;2023-04-08T12:17:31;9.43;;;4.80;;
66567;SDS011;53422;49.296;6.900;2023-04-08T12:19:57;8.70;;;4.60;;
66567;SDS011;53422;49.296;6.900;2023-04-08T12:22:23;13.50;;;6.50;;
66567;SDS011;53422;49.296;6.900;2023-04-08T12:24:49;9.68;;;4.97;;
66567;SDS011;53422;49.296;6.900;2023-04-08T12:27:15;9.95;;;4.50;;
66567;SDS011;53422;49.296;6.900;2023-04-08T12:29:40;9.38;;;4.75;;
66567;SDS011;53422;49.296;6.900;2023-04-08T12:32:07;10.70;;;4.25;;
66567;SDS011;53422;49.296;6.900;2023-04-08T12:34:33;10.50;;;5.28;;
66567;SDS011;53422;49.296;6.900;2023-04-08T12:36:58;9.88;;;4.60;;
66567;SDS011;53422;49.296;6.900;2023-04-08T12:39:24;9.63;;;4.70;;
66567;SDS011;53422;49.296;6.900;2023-04-08T12:41:50;8.43;;;4.60;;
66567;SDS011;53422;49.296;6.900;2023-04-08T12:44:15;11.68;;;5.60;;
66567;SDS011;53422;49.296;6.900;2023-04-08T12:46:41;9.88;;;4.70;;
66567;SDS011;53422;49.296;6.900;2023-04-08T12:49:07;10.43;;;5.43;;
66567;SDS011;53422;49.296;6.900;2023-04-08T12:51:33;12.55;;;4.95;;
66567;SDS011;53422;49.296;6.900;2023-04-08T12:54:00;9.90;;;5.25;;
66567;SDS011;53422;49.296;6.900;2023-04-08T12:58:53;12.95;;;5.00;;
66567;SDS011;53422;49.296;6.900;2023-04-08T13:01:19;11.15;;;4.68;;
66567;SDS011;53422;49.296;6.900;2023-04-08T13:03:45;11.75;;;5.90;;
66567;SDS011;53422;49.296;6.900;2023-04-08T13:06:11;11.57;;;5.13;;
66567;SDS011;53422;49.296;6.900;2023-04-08T13:08:37;11.65;;;5.18;;
66567;SDS011;53422;49.296;6.900;2023-04-08T13:11:03;9.02;;;4.65;;
66567;SDS011;53422;49.296;6.900;2023-04-08T13:13:28;11.48;;;5.10;;
66567;SDS011;53422;49.296;6.900;2023-04-08T13:15:54;10.52;;;5.35;;
66567;SDS011;53422;49.296;6.900;2023-04-08T13:18:20;10.30;;;5.00;;
66567;SDS011;53422;49.296;6.900;2023-04-08T13:20:46;10.85;;;4.95;;
66567;SDS011;53422;49.296;6.900;2023-04-08T13:23:12;12.02;;;5.03;;
66567;SDS011;53422;49.296;6.900;2023-04-08T13:25:39;10.93;;;5.05;;
66567;SDS011;53422;49.296;6.900;2023-04-08T13:28:05;10.38;;;4.82;;
66567;SDS011;53422;49.296;6.900;2023-04-08T13:30:30;15.48;;;6.25;;
66567;SDS011;53422;49.296;6.900;2023-04-08T13:32:56;12.20;;;5.07;;
66567;SDS011;53422;49.296;6.900;2023-04-08T13:35:22;9.02;;;4.95;;
66567;SDS011;53422;49.296;6.900;2023-04-08T13:37:47;12.15;;;5.50;;
66567;SDS011;53422;49.296;6.900;2023-04-08T13:40:13;14.82;;;5.80;;
66567;SDS011;53422;49.296;6.900;2023-04-08T13:42:39;10.90;;;6.40;;
66567;SDS011;53422;49.296;6.900;2023-04-08T13:45:05;11.88;;;6.03;;
66567;SDS011;53422;49.296;6.900;2023-04-08T13:47:31;14.27;;;6.65;;
66567;SDS011;53422;49.296;6.900;2023-04-08T13:49:57;11.43;;;5.70;;
66567;SDS011;53422;49.296;6.900;2023-04-08T13:52:23;11.65;;;5.78;;
66567;SDS011;53422;49.296;6.900;2023-04-08T13:54:48;11.30;;;5.28;;
66567;SDS011;53422;49.296;6.900;2023-04-08T13:57:14;12.65;;;6.05;;
66567;SDS011;53422;49.296;6.900;2023-04-08T13:59:40;12.20;;;5.82;;
66567;SDS011;53422;49.296;6.900;2023-04-08T14:02:05;10.05;;;4.75;;
66567;SDS011;53422;49.296;6.900;2023-04-08T14:04:31;11.25;;;5.15;;
66567;SDS011;53422;49.296;6.900;2023-04-08T14:06:57;10.82;;;5.57;;
66567;SDS011;53422;49.296;6.900;2023-04-08T14:09:23;15.80;;;7.15;;
66567;SDS011;53422;49.296;6.900;2023-04-08T14:11:48;10.30;;;5.07;;
66567;SDS011;53422;49.296;6.900;2023-04-08T14:14:14;11.43;;;5.07;;
66567;SDS011;53422;49.296;6.900;2023-04-08T14:16:40;13.55;;;6.13;;
66567;SDS011;53422;49.296;6.900;2023-04-08T14:19:06;14.57;;;6.75;;
66567;SDS011;53422;49.296;6.900;2023-04-08T14:21:32;11.85;;;5.30;;
66567;SDS011;53422;49.296;6.900;2023-04-08T14:23:58;14.13;;;6.07;;
66567;SDS011;53422;49.296;6.900;2023-04-08T14:26:24;8.38;;;4.65;;
66567;SDS011;53422;49.296;6.900;2023-04-08T14:28:51;12.25;;;6.38;;
66567;SDS011;53422;49.296;6.900;2023-04-08T14:31:16;10.75;;;5.68;;
66567;SDS011;53422;49.296;6.900;2023-04-08T14:33:42;11.93;;;6.38;;
66567;SDS011;53422;49.296;6.900;2023-04-08T14:36:08;10.52;;;5.43;;
66567;SDS011;53422;49.296;6.900;2023-04-08T14:38:34;7.85;;;3.70;;
66567;SDS011;53422;49.296;6.900;2023-04-08T14:41:00;11.82;;;6.68;;
66567;SDS011;53422;49.296;6.900;2023-04-08T14:43:26;11.40;;;6.05;;
66567;SDS011;53422;49.296;6.900;2023-04-08T14:45:51;11.50;;;4.78;;
66567;SDS011;53422;49.296;6.900;2023-04-08T14:48:18;11.52;;;4.90;;
66567;SDS011;53422;49.296;6.900;2023-04-08T14:50:44;10.80;;;4.28;;
66567;SDS011;53422;49.296;6.900;2023-04-08T14:53:10;10.07;;;4.57;;
66567;SDS011;53422;49.296;6.900;2023-04-08T14:55:36;10.52;;;5.18;;
66567;SDS011;53422;49.296;6.900;2023-04-08T14:58:03;7.35;;;4.07;;
66567;SDS011;53422;49.296;6.900;2023-04-08T15:00:28;5.80;;;2.53;;
66567;SDS011;53422;49.296;6.900;2023-04-08T15:02:54;8.52;;;4.90;;
66567;SDS011;53422;49.296;6.900;2023-04-08T15:05:20;8.70;;;3.80;;
66567;SDS011;53422;49.296;6.900;2023-04-08T15:07:46;10.48;;;3.97;;
66567;SDS011;53422;49.296;6.900;2023-04-08T15:10:12;9.98;;;4.43;;